Time;durP1;ratioP1;P1;durP2;ratioP2;P2;SDS_P1;SDS_P2;PMS_P1;PMS_P2;Temp;Humidity;BMP_temperature;BMP_pressure;BME280_temperature;BME280_humidity;BME280_pressure;Samples;Min_cycle;Max_cycle;Signal;HPM_P1;HPM_P2
2022/01/31 00:01:16;;;;;;;6.17;3.58;;;;;;;-0.11;100.00;97617.27;1695407;83;21120;-71
2022/01/31 00:03:43;;;;;;;6.62;3.58;;;;;;;-0.10;100.00;97617.66;1689436;84;21099;-68
2022/01/31 00:06:09;;;;;;;4.72;2.98;;;;;;;-0.14;100.00;97604.41;1692154;84;21091;-69
2022/01/31 00:08:36;;;;;;;5.72;3.20;;;;;;;-0.17;100.00;97605.83;1677378;85;21040;-69
2022/01/31 00:11:02;;;;;;;6.12;3.08;;;;;;;-0.15;100.00;97610.50;1632375;87;21062;-70
2022/01/31 00:13:36;;;;;;;5.22;3.72;;;;;;;-0.15;100.00;97604.03;1648905;86;21112;-71
2022/01/31 00:16:02;;;;;;;5.15;3.60;;;;;;;-0.16;100.00;97601.91;1664203;84;21048;-70
2022/01/31 00:18:30;;;;;;;5.65;3.27;;;;;;;-0.16;100.00;97601.03;1683424;85;21583;-70
2022/01/31 00:20:58;;;;;;;6.12;3.40;;;;;;;-0.17;100.00;97600.66;1681669;85;21059;-72
2022/01/31 00:23:24;;;;;;;5.00;3.37;;;;;;;-0.19;100.00;97596.81;1683539;85;21757;-68
2022/01/31 00:25:52;;;;;;;5.12;3.50;;;;;;;-0.20;100.00;97600.31;1683315;85;21078;-73
2022/01/31 00:28:19;;;;;;;6.53;3.37;;;;;;;-0.18;100.00;97592.48;1718016;82;21098;-70
2022/01/31 00:30:46;;;;;;;4.80;3.20;;;;;;;-0.21;100.00;97590.84;1717946;82;21042;-70
2022/01/31 00:33:13;;;;;;;6.22;3.42;;;;;;;-0.19;100.00;97605.03;1718511;83;21054;-71
2022/01/31 00:35:43;;;;;;;6.15;3.60;;;;;;;-0.20;100.00;97600.77;1717913;83;21059;-71
2022/01/31 00:38:10;;;;;;;5.78;2.92;;;;;;;-0.20;100.00;97593.84;1718426;83;21051;-70
2022/01/31 00:40:41;;;;;;;3.98;2.65;;;;;;;-0.23;100.00;97589.62;1718295;83;21162;-69
2022/01/31 00:43:12;;;;;;;6.75;2.77;;;;;;;-0.26;100.00;97587.13;1716915;83;21039;-70
2022/01/31 00:45:46;;;;;;;3.30;2.10;;;;;;;-0.23;100.00;97594.80;1718349;82;22149;-69
2022/01/31 00:48:14;;;;;;;4.92;2.37;;;;;;;-0.26;100.00;97582.41;1716996;83;21295;-69
2022/01/31 00:50:39;;;;;;;5.90;3.00;;;;;;;-0.29;100.00;97580.77;1716979;83;21127;-69
2022/01/31 00:53:03;;;;;;;3.12;2.10;;;;;;;-0.30;100.00;97582.98;1717611;83;21558;-69
2022/01/31 00:55:29;;;;;;;3.87;2.10;;;;;;;-0.27;100.00;97577.69;1718532;83;21562;-70
2022/01/31 00:57:56;;;;;;;4.85;2.45;;;;;;;-0.29;100.00;97576.89;1718082;83;21743;-69
2022/01/31 01:00:22;;;;;;;3.17;2.20;;;;;;;-0.31;100.00;97579.98;1714299;83;21108;-71
2022/01/31 01:02:49;;;;;;;3.77;2.10;;;;;;;-0.32;100.00;97574.84;1690919;84;21065;-70
2022/01/31 01:05:16;;;;;;;4.15;2.27;;;;;;;-0.36;100.00;97578.45;1691445;84;21734;-69
2022/01/31 01:07:47;;;;;;;4.80;2.08;;;;;;;-0.35;100.00;97577.09;1691009;84;21025;-70
2022/01/31 01:10:18;;;;;;;3.02;1.95;;;;;;;-0.35;100.00;97575.80;1657541;86;21071;-69
2022/01/31 01:12:45;;;;;;;3.25;2.02;;;;;;;-0.35;100.00;97574.50;1662838;85;21092;-69
2022/01/31 01:15:12;;;;;;;3.87;2.15;;;;;;;-0.34;100.00;97577.50;1685301;85;21080;-70
2022/01/31 01:17:41;;;;;;;2.37;1.80;;;;;;;-0.35;100.00;97575.80;1657615;85;21624;-70
2022/01/31 01:20:11;;;;;;;2.10;1.40;;;;;;;-0.35;100.00;97576.25;1719940;82;21056;-70
2022/01/31 01:22:38;;;;;;;3.95;2.10;;;;;;;-0.34;100.00;97577.96;1719794;83;21020;-70
2022/01/31 01:25:08;;;;;;;3.70;2.05;;;;;;;-0.34;100.00;97572.79;1701191;83;21111;-69
2022/01/31 01:27:35;;;;;;;4.00;1.57;;;;;;;-0.35;100.00;97570.63;1719522;82;21062;-71
2022/01/31 01:30:55;;;;;;;2.90;1.70;;;;;;;-0.31;100.00;97574.80;1856894;76;23416;-70
2022/01/31 01:33:23;;;;;;;3.85;1.60;;;;;;;-0.34;100.00;97577.50;1852873;77;21559;-71
2022/01/31 01:35:53;;;;;;;2.42;1.60;;;;;;;-0.32;100.00;97580.89;1852369;77;21076;-72
2022/01/31 01:38:23;;;;;;;2.40;1.57;;;;;;;-0.32;100.00;97580.89;1852655;77;21002;-71
2022/01/31 01:40:50;;;;;;;2.30;1.47;;;;;;;-0.35;100.00;97573.21;1829555;77;21033;-69
2022/01/31 01:43:18;;;;;;;3.12;1.80;;;;;;;-0.36;100.00;97575.88;1819329;78;21088;-71
2022/01/31 01:45:46;;;;;;;2.20;1.52;;;;;;;-0.33;100.00;97580.92;1819293;78;21061;-70
2022/01/31 01:48:14;;;;;;;2.80;1.55;;;;;;;-0.36;100.00;97578.00;1818705;78;22254;-69
2022/01/31 01:50:40;;;;;;;2.90;1.77;;;;;;;-0.36;100.00;97575.88;1819110;78;22084;-70
2022/01/31 01:53:08;;;;;;;4.12;1.50;;;;;;;-0.39;100.00;97584.58;1819184;78;21075;-70
2022/01/31 01:55:36;;;;;;;3.75;1.70;;;;;;;-0.39;100.00;97582.00;1818847;78;20970;-70
2022/01/31 01:58:05;;;;;;;3.05;1.50;;;;;;;-0.39;100.00;97579.41;1794472;77;21028;-70
2022/01/31 02:00:49;;;;;;;2.27;1.57;;;;;;;-0.36;100.00;97588.34;1845555;77;21191;-70
2022/01/31 02:03:02;;;;;;;2.42;1.65;;;;;;;-0.32;100.00;97582.18;1817442;78;21065;-70
2022/01/31 02:05:29;;;;;;;2.08;1.47;;;;;;;-0.31;100.00;97583.86;1784393;79;21049;-68
2022/01/31 02:07:55;;;;;;;4.95;1.75;;;;;;;-0.28;100.00;97580.31;1807486;79;21025;-68
2022/01/31 02:10:25;;;;;;;4.60;2.00;;;;;;;-0.29;100.00;97580.77;1807713;79;21045;-68
2022/01/31 02:12:52;;;;;;;5.78;2.30;;;;;;;-0.30;100.00;97581.69;1812800;77;21141;-69
2022/01/31 02:15:26;;;;;;;5.87;2.33;;;;;;;-0.31;100.00;97582.56;1852108;77;21022;-69
2022/01/31 02:18:15;;;;;;;4.55;2.12;;;;;;;-0.31;100.00;97578.69;1852715;77;21032;-70
2022/01/31 02:20:42;;;;;;;4.42;1.95;;;;;;;-0.33;100.00;97581.77;1856192;77;20973;-68
2022/01/31 02:23:11;;;;;;;4.28;1.98;;;;;;;-0.32;100.00;97574.42;1834878;77;21154;-68
2022/01/31 02:26:00;;;;;;;2.90;1.70;;;;;;;-0.32;100.00;97577.01;1819724;78;21086;-70
2022/01/31 02:28:41;;;;;;;1.92;1.40;;;;;;;-0.32;100.00;97582.18;1779437;78;21101;-70
2022/01/31 02:31:08;;;;;;;2.85;1.30;;;;;;;-0.30;100.00;97576.52;1816541;78;21003;-69
2022/01/31 02:33:34;;;;;;;2.20;1.32;;;;;;;-0.29;100.00;97566.55;1816535;79;21582;-69
2022/01/31 02:36:04;;;;;;;3.25;1.20;;;;;;;-0.28;100.00;97575.98;1784485;79;21120;-69
2022/01/31 02:38:30;;;;;;;1.90;1.10;;;;;;;-0.28;100.00;97566.09;1816520;79;21052;-71
2022/01/31 02:40:57;;;;;;;2.62;1.32;;;;;;;-0.26;100.00;97574.19;1815832;79;21541;-69
2022/01/31 02:43:27;;;;;;;1.80;1.00;;;;;;;-0.27;100.00;97572.52;1816008;79;21069;-68
2022/01/31 02:45:53;;;;;;;1.82;1.00;;;;;;;-0.26;100.00;97572.06;1815902;79;21624;-68
2022/01/31 02:48:23;;;;;;;1.17;0.88;;;;;;;-0.24;100.00;97580.61;1816251;79;21483;-67
2022/01/31 02:50:49;;;;;;;1.37;0.88;;;;;;;-0.23;100.00;97572.81;1815865;79;21135;-67
2022/01/31 02:53:25;;;;;;;1.70;1.10;;;;;;;-0.26;100.00;97581.95;1815883;79;21035;-67
2022/01/31 02:55:50;;;;;;;2.22;0.98;;;;;;;-0.29;100.00;97578.64;1815565;79;21549;-68
2022/01/31 02:58:18;;;;;;;2.22;1.10;;;;;;;-0.26;100.00;97579.82;1815931;79;21546;-68
2022/01/31 03:00:46;;;;;;;1.12;0.90;;;;;;;-0.30;100.00;97577.80;1816053;79;21058;-69
2022/01/31 03:03:14;;;;;;;2.70;1.10;;;;;;;-0.26;100.00;97579.82;1815531;79;22197;-70
2022/01/31 03:05:41;;;;;;;1.55;0.90;;;;;;;-0.27;100.00;97578.98;1815996;79;20987;-68
2022/01/31 03:08:08;;;;;;;1.15;0.95;;;;;;;-0.27;100.00;97580.27;1816849;77;21572;-68
2022/01/31 03:10:35;;;;;;;1.57;0.80;;;;;;;-0.24;100.00;97584.04;1816310;79;21080;-69
2022/01/31 03:13:03;;;;;;;1.20;1.00;;;;;;;-0.22;100.00;97583.54;1815536;79;21032;-68
2022/01/31 03:15:34;;;;;;;2.40;1.00;;;;;;;-0.22;100.00;97591.76;1815964;79;21033;-69
2022/01/31 03:18:21;;;;;;;2.42;1.00;;;;;;;-0.26;100.00;97581.95;1744624;81;21757;-69
2022/01/31 03:20:48;;;;;;;1.95;0.70;;;;;;;-0.26;100.00;97579.36;1744820;82;21053;-68
2022/01/31 03:23:14;;;;;;;1.62;0.90;;;;;;;-0.32;100.00;97582.18;1772153;79;21552;-69
2022/01/31 03:25:42;;;;;;;0.90;0.80;;;;;;;-0.37;100.00;97593.10;1815739;79;21084;-67
2022/01/31 03:28:08;;;;;;;1.22;0.78;;;;;;;-0.40;100.00;97591.92;1815813;79;21588;-69
2022/01/31 03:30:36;;;;;;;1.82;0.80;;;;;;;-0.40;100.00;97596.26;1816019;79;21029;-68
2022/01/31 03:33:02;;;;;;;1.02;0.80;;;;;;;-0.40;100.00;97600.98;1815476;79;21057;-68
2022/01/31 03:35:28;;;;;;;3.30;1.25;;;;;;;-0.39;100.00;97601.39;1815908;79;21738;-70
2022/01/31 03:37:55;;;;;;;3.27;1.55;;;;;;;-0.40;100.00;97591.09;1815859;79;21071;-70
2022/01/31 03:40:23;;;;;;;4.10;1.72;;;;;;;-0.41;100.00;97600.59;1815914;79;21522;-70
2022/01/31 03:42:50;;;;;;;3.25;1.22;;;;;;;-0.40;100.00;97595.80;1815798;79;21485;-73
2022/01/31 03:45:16;;;;;;;3.35;1.30;;;;;;;-0.40;100.00;97594.97;1784180;79;21709;-70
2022/01/31 03:47:44;;;;;;;1.90;0.90;;;;;;;-0.38;100.00;97595.77;1815661;79;21586;-71
2022/01/31 03:50:14;;;;;;;2.33;1.00;;;;;;;-0.38;100.00;97592.72;1816012;79;21115;-71
2022/01/31 03:52:42;;;;;;;1.77;0.85;;;;;;;-0.40;100.00;97588.05;1815514;79;21104;-70
2022/01/31 03:55:11;;;;;;;3.45;1.00;;;;;;;-0.41;100.00;97594.13;1815534;79;21621;-69
2022/01/31 03:57:42;;;;;;;4.03;1.40;;;;;;;-0.38;100.00;97602.23;1816335;79;21016;-69
2022/01/31 04:00:12;;;;;;;1.27;0.90;;;;;;;-0.36;100.00;97593.52;1810866;79;21060;-68
2022/01/31 04:02:41;;;;;;;2.37;1.30;;;;;;;-0.34;100.00;97599.48;1814203;79;21670;-70
2022/01/31 04:05:08;;;;;;;2.42;1.00;;;;;;;-0.34;100.00;97605.95;1815892;79;21112;-71
2022/01/31 04:07:34;;;;;;;1.95;1.07;;;;;;;-0.34;100.00;97613.71;1816095;77;21116;-68
2022/01/31 04:10:05;;;;;;;1.45;1.00;;;;;;;-0.34;100.00;97608.54;1815972;79;20985;-69
2022/01/31 04:12:31;;;;;;;2.00;1.10;;;;;;;-0.38;100.00;97605.65;1823208;77;21028;-70
2022/01/31 04:14:58;;;;;;;2.20;1.32;;;;;;;-0.35;100.00;97606.83;1852157;77;21092;-69
2022/01/31 04:17:26;;;;;;;3.37;1.52;;;;;;;-0.37;100.00;97608.63;1851938;77;21014;-70
2022/01/31 04:19:52;;;;;;;2.17;1.17;;;;;;;-0.38;100.00;97609.53;1852031;77;21047;-69
2022/01/31 04:22:20;;;;;;;2.27;1.20;;;;;;;-0.36;100.00;97609.03;1852127;77;21594;-69
2022/01/31 04:24:53;;;;;;;2.00;1.10;;;;;;;-0.37;100.00;97624.13;1852234;77;21540;-68
2022/01/31 04:27:19;;;;;;;3.83;1.32;;;;;;;-0.38;100.00;97621.17;1851549;77;21017;-67
2022/01/31 04:29:47;;;;;;;4.00;1.42;;;;;;;-0.37;100.00;97621.55;1826525;77;21119;-67
2022/01/31 04:32:13;;;;;;;2.70;1.32;;;;;;;-0.38;100.00;97617.29;1821956;77;21010;-67
2022/01/31 04:34:41;;;;;;;4.05;1.98;;;;;;;-0.39;100.00;97622.50;1826515;77;21049;-72
2022/01/31 04:37:08;;;;;;;4.03;1.92;;;;;;;-0.43;100.00;97620.48;1821525;77;21096;-71
2022/01/31 04:39:36;;;;;;;4.42;2.02;;;;;;;-0.43;100.00;97630.83;1807384;78;21006;-72
2022/01/31 04:42:04;;;;;;;2.98;1.72;;;;;;;-0.45;100.00;97627.44;1833993;77;21089;-72
2022/01/31 04:44:30;;;;;;;4.85;1.90;;;;;;;-0.46;100.00;97627.02;1840849;77;21017;-72
2022/01/31 04:46:57;;;;;;;3.83;1.45;;;;;;;-0.48;100.00;97628.84;1839781;77;21061;-70
2022/01/31 04:49:23;;;;;;;3.40;1.60;;;;;;;-0.46;100.00;97637.37;1839899;77;21068;-71
2022/01/31 04:51:51;;;;;;;1.80;1.20;;;;;;;-0.46;100.00;97638.66;1840282;77;21055;-71
2022/01/31 04:54:18;;;;;;;3.70;1.60;;;;;;;-0.47;100.00;97640.86;1835691;77;21129;-69
2022/01/31 04:56:46;;;;;;;3.15;1.50;;;;;;;-0.45;100.00;97653.30;1814016;77;21021;-70
2022/01/31 04:59:13;;;;;;;2.58;1.50;;;;;;;-0.47;100.00;97650.75;1812727;77;21041;-70
2022/01/31 05:01:42;;;;;;;2.58;1.40;;;;;;;-0.46;100.00;97645.13;1817352;77;21557;-71
2022/01/31 05:04:08;;;;;;;2.40;1.37;;;;;;;-0.43;100.00;97651.51;1821770;77;21064;-69
2022/01/31 05:06:38;;;;;;;1.92;1.20;;;;;;;-0.42;100.00;97648.02;1824272;78;21118;-71
2022/01/31 05:09:05;;;;;;;4.78;1.50;;;;;;;-0.46;100.00;97649.00;1760698;79;21642;-69
2022/01/31 05:11:32;;;;;;;2.25;1.40;;;;;;;-0.47;100.00;97652.50;1743905;81;21590;-72
2022/01/31 05:13:58;;;;;;;4.97;1.30;;;;;;;-0.47;100.00;97648.62;1811014;77;21025;-71
2022/01/31 05:16:24;;;;;;;5.80;1.15;;;;;;;-0.54;100.00;97667.81;1758285;81;21125;-72
2022/01/31 05:18:50;;;;;;;4.45;1.47;;;;;;;-0.55;100.00;97672.14;1787268;79;21140;-73
2022/01/31 05:21:17;;;;;;;4.95;1.62;;;;;;;-0.53;100.00;97674.23;1789327;79;21034;-66
2022/01/31 05:23:44;;;;;;;4.50;2.00;;;;;;;-0.54;100.00;97667.81;1800518;79;21077;-66
2022/01/31 05:26:10;;;;;;;4.65;1.95;;;;;;;-0.59;100.00;97659.36;1793102;79;21542;-65
2022/01/31 05:28:36;;;;;;;3.45;1.90;;;;;;;-0.65;100.00;97659.93;1768759;81;21044;-66
2022/01/31 05:31:03;;;;;;;4.25;1.98;;;;;;;-0.69;100.00;97664.82;1790088;79;21455;-65
2022/01/31 05:33:29;;;;;;;4.35;1.72;;;;;;;-0.69;100.00;97673.00;1832127;77;21077;-64
2022/01/31 05:35:56;;;;;;;4.33;1.87;;;;;;;-0.72;100.00;97672.66;1828129;77;21025;-64
2022/01/31 05:38:22;;;;;;;3.65;1.60;;;;;;;-0.74;100.00;97665.84;1829910;77;21012;-65
2022/01/31 05:40:48;;;;;;;3.05;1.77;;;;;;;-0.75;100.00;97674.50;1838732;77;21025;-66
2022/01/31 05:43:16;;;;;;;4.17;1.70;;;;;;;-0.77;100.00;97673.25;1835949;77;21971;-65
2022/01/31 05:45:43;;;;;;;2.42;1.50;;;;;;;-0.78;100.00;97688.37;1833888;77;21028;-66
2022/01/31 05:48:09;;;;;;;4.62;1.98;;;;;;;-0.77;100.00;97692.63;1817797;77;21064;-66
2022/01/31 05:50:35;;;;;;;4.15;1.67;;;;;;;-0.77;100.00;97691.34;1777001;80;21749;-66
2022/01/31 05:53:01;;;;;;;4.10;2.15;;;;;;;-0.76;100.00;97692.17;1828360;77;21042;-65
2022/01/31 05:55:28;;;;;;;5.45;2.10;;;;;;;-0.77;100.00;97697.80;1849341;77;21057;-65
2022/01/31 05:57:54;;;;;;;3.60;1.87;;;;;;;-0.76;100.00;97704.67;1848857;77;21269;-65
2022/01/31 06:00:22;;;;;;;2.40;1.57;;;;;;;-0.75;100.00;97705.06;1844907;77;21037;-66
2022/01/31 06:02:56;;;;;;;5.35;2.22;;;;;;;-0.75;100.00;97688.27;1815884;77;21633;-66
2022/01/31 06:05:22;;;;;;;5.42;2.30;;;;;;;-0.69;100.00;97697.55;1816030;79;21055;-67
2022/01/31 06:07:50;;;;;;;3.15;1.82;;;;;;;-0.66;100.00;97700.06;1836039;77;21132;-65
2022/01/31 06:10:17;;;;;;;2.98;1.50;;;;;;;-0.67;100.00;97710.86;1818743;77;21492;-65
2022/01/31 06:12:44;;;;;;;3.02;1.70;;;;;;;-0.66;100.00;97709.11;1847386;77;21541;-65
2022/01/31 06:15:11;;;;;;;3.83;1.82;;;;;;;-0.66;100.00;97715.13;1819826;77;21670;-65
2022/01/31 06:17:38;;;;;;;3.00;1.87;;;;;;;-0.63;100.00;97710.30;1816433;79;21088;-65
2022/01/31 06:20:07;;;;;;;7.12;1.90;;;;;;;-0.61;100.00;97715.44;1827411;77;21804;-65
2022/01/31 06:22:35;;;;;;;3.62;1.57;;;;;;;-0.58;100.00;97712.74;1848861;77;21032;-64
2022/01/31 06:25:01;;;;;;;2.50;1.40;;;;;;;-0.54;100.00;97707.88;1814670;77;21037;-65
2022/01/31 06:27:30;;;;;;;3.35;1.67;;;;;;;-0.58;100.00;97718.75;1824601;77;21450;-65
2022/01/31 06:29:56;;;;;;;3.20;1.62;;;;;;;-0.58;100.00;97717.45;1826375;77;21028;-66
2022/01/31 06:32:26;;;;;;;3.70;1.90;;;;;;;-0.57;100.00;97723.05;1807392;77;21519;-64
2022/01/31 06:34:53;;;;;;;3.22;1.62;;;;;;;-0.60;100.00;97720.53;1775568;79;21547;-66
2022/01/31 06:37:19;;;;;;;3.90;2.27;;;;;;;-0.61;100.00;97718.02;1750583;79;22165;-65
2022/01/31 06:39:46;;;;;;;6.95;2.47;;;;;;;-0.61;100.00;97719.31;1760134;79;20990;-67
2022/01/31 06:42:12;;;;;;;7.50;2.35;;;;;;;-0.62;100.00;97716.31;1777680;79;21252;-64
2022/01/31 06:44:41;;;;;;;5.95;2.83;;;;;;;-0.55;100.00;97732.03;1753029;80;21148;-64
2022/01/31 06:47:08;;;;;;;6.42;3.52;;;;;;;-0.55;100.00;97721.69;1755209;80;21073;-64
2022/01/31 06:49:34;;;;;;;4.72;2.83;;;;;;;-0.52;100.00;97724.20;1759703;80;21038;-64
2022/01/31 06:52:01;;;;;;;4.75;2.30;;;;;;;-0.52;100.00;97727.63;1761322;80;21600;-65
2022/01/31 06:54:27;;;;;;;3.65;1.87;;;;;;;-0.50;100.00;97726.30;1756050;80;21077;-65
2022/01/31 06:56:56;;;;;;;4.87;2.37;;;;;;;-0.47;100.00;97736.53;1759958;80;21141;-64
2022/01/31 06:59:21;;;;;;;3.42;2.02;;;;;;;-0.48;100.00;97733.11;1753616;80;21038;-65
2022/01/31 07:01:48;;;;;;;4.53;2.30;;;;;;;-0.46;100.00;97730.45;1763079;80;21100;-64
2022/01/31 07:04:14;;;;;;;3.70;2.02;;;;;;;-0.47;100.00;97744.28;1764984;80;21687;-66
2022/01/31 07:06:42;;;;;;;4.15;1.85;;;;;;;-0.47;100.00;97741.70;1748685;80;21098;-66
2022/01/31 07:09:08;;;;;;;5.05;1.90;;;;;;;-0.49;100.00;97731.39;1756698;80;21065;-65
2022/01/31 07:11:39;;;;;;;4.55;1.87;;;;;;;-0.47;100.00;97744.28;1765804;80;21100;-64
2022/01/31 07:14:06;;;;;;;3.85;2.00;;;;;;;-0.44;100.00;97739.02;1755957;80;21096;-65
2022/01/31 07:16:32;;;;;;;4.87;1.92;;;;;;;-0.39;100.00;97743.62;1752707;80;21066;-64
2022/01/31 07:19:06;;;;;;;5.37;2.05;;;;;;;-0.35;100.00;97746.48;1754101;80;21002;-64
2022/01/31 07:21:37;;;;;;;6.00;3.33;;;;;;;-0.34;100.00;97752.52;1758047;80;21174;-65
2022/01/31 07:24:17;;;;;;;5.20;2.58;;;;;;;-0.34;100.00;97750.78;1751055;80;21581;-64
2022/01/31 07:26:32;;;;;;;6.53;3.10;;;;;;;-0.28;100.00;97750.56;1756875;80;21329;-66
2022/01/31 07:28:58;;;;;;;6.42;3.20;;;;;;;-0.28;100.00;97749.27;1746673;80;21030;-65
2022/01/31 07:31:25;;;;;;;5.55;2.80;;;;;;;-0.29;100.00;97755.35;1764541;80;21049;-66
2022/01/31 07:33:51;;;;;;;6.90;3.42;;;;;;;-0.23;100.00;97755.59;1776581;78;21057;-65
2022/01/31 07:36:18;;;;;;;5.80;2.60;;;;;;;-0.22;100.00;97749.09;1810302;78;21497;-64
2022/01/31 07:38:44;;;;;;;5.37;2.50;;;;;;;-0.25;100.00;97758.25;1811597;78;20986;-65
2022/01/31 07:41:14;;;;;;;5.10;2.35;;;;;;;-0.19;100.00;97752.48;1809519;78;21027;-66
2022/01/31 07:43:43;;;;;;;5.00;1.90;;;;;;;-0.19;100.00;97757.20;1808693;78;21058;-66
2022/01/31 07:46:14;;;;;;;4.78;2.70;;;;;;;-0.19;100.00;97766.70;1808266;78;21128;-65
2022/01/31 07:48:40;;;;;;;3.70;2.10;;;;;;;-0.17;100.00;97761.03;1804212;79;21115;-65
2022/01/31 07:51:08;;;;;;;5.50;2.47;;;;;;;-0.10;100.00;97766.41;1806581;78;21046;-65
2022/01/31 07:53:38;;;;;;;5.37;2.00;;;;;;;-0.07;100.00;97767.59;1813113;79;21077;-64
2022/01/31 07:56:08;;;;;;;3.55;1.80;;;;;;;-0.01;100.00;97773.88;1814450;78;21078;-65
2022/01/31 07:58:35;;;;;;;4.20;2.55;;;;;;;0.05;100.00;97781.45;1807460;78;21140;-66
2022/01/31 08:01:01;;;;;;;4.97;2.40;;;;;;;0.13;100.00;97784.63;1811287;78;21577;-65
2022/01/31 08:03:28;;;;;;;5.35;2.90;;;;;;;0.12;100.00;97785.53;1802364;79;21040;-67
2022/01/31 08:05:55;;;;;;;3.00;1.87;;;;;;;0.17;100.00;97801.75;1809826;77;21102;-65
2022/01/31 08:08:21;;;;;;;3.75;2.12;;;;;;;0.19;100.00;97796.08;1813874;77;21042;-65
2022/01/31 08:10:48;;;;;;;4.85;2.90;;;;;;;0.22;100.00;97802.06;1811741;79;21508;-65
2022/01/31 08:13:15;;;;;;;4.72;2.42;;;;;;;0.23;100.00;97805.03;1791415;79;21108;-65
2022/01/31 08:16:00;;;;;;;7.78;3.05;;;;;;;0.13;100.00;97796.73;1788547;78;20991;-66
2022/01/31 08:18:17;;;;;;;4.97;2.70;;;;;;;0.07;100.00;97806.84;1809972;79;21597;-64
2022/01/31 08:20:43;;;;;;;5.08;2.55;;;;;;;0.03;100.00;97802.66;1805775;79;21057;-64
2022/01/31 08:23:10;;;;;;;5.55;2.50;;;;;;;-0.03;100.00;97810.59;1803950;79;21539;-66
2022/01/31 08:25:37;;;;;;;3.90;1.95;;;;;;;-0.07;100.00;97805.11;1801154;79;21112;-65
2022/01/31 08:28:10;;;;;;;5.87;2.45;;;;;;;-0.13;100.00;97809.20;1800041;77;21074;-65
2022/01/31 08:30:48;;;;;;;4.17;2.20;;;;;;;-0.09;100.00;97810.78;1803058;77;21074;-64
2022/01/31 08:33:14;;;;;;;2.83;1.42;;;;;;;-0.09;100.00;97815.53;1773379;78;21027;-65
2022/01/31 08:35:48;;;;;;;5.42;1.90;;;;;;;-0.09;100.00;97807.77;1757785;81;21097;-65
2022/01/31 08:38:16;;;;;;;3.47;1.57;;;;;;;-0.05;100.00;97829.20;1758313;81;21200;-64
2022/01/31 08:40:44;;;;;;;4.30;2.42;;;;;;;-0.02;100.00;97836.89;1780020;80;21358;-65
2022/01/31 08:43:10;;;;;;;6.15;2.98;;;;;;;0.01;100.00;97835.95;1800482;79;21099;-65
2022/01/31 08:45:37;;;;;;;5.75;2.83;;;;;;;-0.01;100.00;97849.77;1812883;79;21636;-65
2022/01/31 08:48:04;;;;;;;8.03;3.47;;;;;;;0.03;100.00;97851.82;1812750;79;21117;-65
2022/01/31 08:50:31;;;;;;;10.53;5.67;;;;;;;0.08;100.00;97855.56;1812732;79;21078;-65
2022/01/31 08:52:57;;;;;;;13.80;6.30;;;;;;;0.14;100.00;97857.52;1811850;79;21018;-65
2022/01/31 08:55:25;;;;;;;9.55;4.03;;;;;;;0.27;100.00;97855.82;1813040;79;21053;-65
2022/01/31 08:57:54;;;;;;;12.33;6.62;;;;;;;0.43;100.00;97857.47;1812854;79;21070;-65
2022/01/31 09:00:20;;;;;;;6.60;3.08;;;;;;;0.46;100.00;97863.84;1785361;79;21101;-65
2022/01/31 09:03:04;;;;;;;10.00;5.10;;;;;;;0.50;100.00;97853.33;1813049;79;21020;-64
2022/01/31 09:05:22;;;;;;;11.65;5.75;;;;;;;0.59;100.00;97856.06;1808724;77;21039;-66
2022/01/31 09:07:48;;;;;;;8.13;4.62;;;;;;;0.73;100.00;97848.67;1813912;79;20983;-64
2022/01/31 09:10:18;;;;;;;7.78;3.98;;;;;;;0.84;100.00;97845.73;1812359;79;21516;-66
2022/01/31 09:12:45;;;;;;;4.12;1.95;;;;;;;0.79;100.00;97854.11;1801128;79;22086;-65
2022/01/31 09:15:14;;;;;;;11.85;5.20;;;;;;;0.75;100.00;97856.41;1785383;79;21060;-66
2022/01/31 09:17:41;;;;;;;7.33;4.12;;;;;;;0.69;100.00;97870.84;1814067;79;21033;-67
2022/01/31 09:20:09;;;;;;;12.05;6.83;;;;;;;0.70;100.00;97862.20;1810456;79;21021;-65
2022/01/31 09:22:36;;;;;;;14.25;6.12;;;;;;;0.73;100.00;97862.92;1814676;79;21044;-67
2022/01/31 09:25:03;;;;;;;8.85;4.62;;;;;;;0.90;100.00;97866.26;1815388;79;21714;-66
2022/01/31 09:27:29;;;;;;;7.53;3.60;;;;;;;0.93;100.00;97864.84;1812947;79;21655;-66
2022/01/31 09:29:56;;;;;;;8.20;4.35;;;;;;;0.86;100.00;97868.55;1799366;79;21638;-64
2022/01/31 09:32:24;;;;;;;7.60;4.05;;;;;;;0.87;100.00;97878.00;1814916;78;21088;-65
2022/01/31 09:34:52;;;;;;;4.65;2.33;;;;;;;0.82;100.00;97870.84;1807205;78;21016;-64
2022/01/31 09:37:21;;;;;;;6.92;2.65;;;;;;;0.87;100.00;97875.41;1807225;78;21521;-65
2022/01/31 09:39:49;;;;;;;5.25;2.35;;;;;;;0.87;100.00;97888.37;1814579;78;21066;-66
2022/01/31 09:42:26;;;;;;;4.12;2.17;;;;;;;0.90;100.00;97888.28;1814908;78;21530;-64
2022/01/31 09:45:05;;;;;;;6.17;3.15;;;;;;;0.83;100.00;97887.64;1813115;78;21025;-64
2022/01/31 09:47:21;;;;;;;8.90;5.15;;;;;;;0.77;100.00;97903.84;1811359;78;21095;-65
2022/01/31 09:49:47;;;;;;;12.20;6.33;;;;;;;0.77;100.00;97898.66;1810760;78;21104;-65
2022/01/31 09:52:13;;;;;;;16.07;7.62;;;;;;;0.82;100.00;97892.87;1807994;78;21602;-65
2022/01/31 09:54:40;;;;;;;6.83;3.67;;;;;;;0.78;100.00;97907.69;1815625;78;21040;-65
2022/01/31 09:57:08;;;;;;;8.80;3.70;;;;;;;0.80;100.00;97907.61;1821033;78;21615;-65
2022/01/31 09:59:35;;;;;;;7.00;3.10;;;;;;;0.80;100.00;97908.91;1747893;82;21009;-65
2022/01/31 10:02:05;;;;;;;5.70;2.83;;;;;;;0.78;100.00;97917.17;1820229;78;21509;-63
2022/01/31 10:04:35;;;;;;;6.80;3.05;;;;;;;0.74;100.00;97921.63;1782949;79;21560;-65
2022/01/31 10:07:01;;;;;;;13.62;7.22;;;;;;;0.67;100.00;97921.86;1817535;78;21825;-64
2022/01/31 10:09:31;;;;;;;14.20;6.87;;;;;;;0.66;100.00;97920.18;1806515;78;21034;-65
2022/01/31 10:12:19;;;;;;;15.08;7.70;;;;;;;0.62;100.00;97922.88;1801837;78;21547;-65
2022/01/31 10:17:44;;;;;;;11.43;5.67;;;;;;;0.60;100.00;97923.38;1742714;80;21595;-65
2022/01/31 10:20:30;;;;;;;15.93;6.60;;;;;;;0.61;100.00;97918.58;1821148;78;21564;-65
2022/01/31 10:23:12;;;;;;;8.23;4.00;;;;;;;0.66;100.00;97918.42;1808545;78;21037;-65
2022/01/31 10:25:42;;;;;;;10.25;3.70;;;;;;;0.73;100.00;97920.37;1810360;78;21580;-67
2022/01/31 10:28:13;;;;;;;5.85;2.50;;;;;;;0.76;100.00;97926.73;1804617;78;21027;-64
2022/01/31 10:30:40;;;;;;;12.20;3.40;;;;;;;0.78;100.00;97917.17;1811745;78;25632;-67
2022/01/31 10:33:09;;;;;;;35.15;16.82;;;;;;;0.74;100.00;97923.38;1820329;77;21028;-68
2022/01/31 10:35:39;;;;;;;14.80;7.03;;;;;;;0.76;100.00;97921.56;1850028;77;21032;-65
2022/01/31 10:38:11;;;;;;;28.32;10.53;;;;;;;0.79;100.00;97931.39;1843619;77;21513;-64
2022/01/31 10:54:37;;;;;;;29.90;14.18;;;;;;;0.80;100.00;97930.48;1774782;80;21084;-66
2022/01/31 10:57:15;;;;;;;15.25;8.38;;;;;;;0.88;100.00;97928.95;1784164;79;21061;-65
2022/01/31 10:59:45;;;;;;;15.08;7.72;;;;;;;0.89;100.00;97934.52;1780871;79;21050;-65
2022/01/31 11:02:18;;;;;;;7.00;3.65;;;;;;;0.91;100.00;97931.43;1776890;79;21532;-66
2022/01/31 11:04:45;;;;;;;3.02;1.80;;;;;;;0.96;100.00;97928.23;1764688;79;21120;-65
2022/01/31 11:07:14;;;;;;;12.73;5.53;;;;;;;1.07;100.00;97923.15;1754614;79;21114;-65
2022/01/31 11:09:45;;;;;;;31.85;15.55;;;;;;;1.11;100.00;97931.23;1771478;79;21307;-66
2022/01/31 11:12:11;;;;;;;;;;;;;;;1.15;100.00;97936.68;1774114;79;21069;-65
2022/01/31 11:14:42;;;;;;;4.25;2.27;;;;;;;1.15;100.00;97936.25;1794780;79;20670;-65
2022/01/31 11:17:14;;;;;;;8.03;4.07;;;;;;;1.01;100.00;97943.20;1763285;79;21077;-65
2022/01/31 11:19:43;;;;;;;16.77;7.37;;;;;;;1.05;100.00;97953.84;1791799;79;22414;-67
2022/01/31 11:22:14;;;;;;;21.48;9.75;;;;;;;0.96;100.00;97958.03;1782805;80;21467;-65
2022/01/31 11:24:46;;;;;;;7.00;3.98;;;;;;;0.83;100.00;97955.02;1790735;79;21021;-65
2022/01/31 11:27:19;;;;;;;3.98;1.95;;;;;;;0.87;100.00;97958.34;1782881;80;21038;-64
2022/01/31 11:29:52;;;;;;;5.78;3.20;;;;;;;0.74;100.00;97955.77;1799472;79;21556;-64
2022/01/31 11:32:19;;;;;;;9.60;4.78;;;;;;;0.65;100.00;97949.58;1813522;78;21126;-65
2022/01/31 11:34:46;;;;;;;6.28;3.30;;;;;;;0.58;100.00;97952.81;1837053;77;20997;-66
2022/01/31 11:37:16;;;;;;;4.60;2.17;;;;;;;0.45;100.00;97951.05;1816383;77;21045;-65
2022/01/31 11:39:46;;;;;;;3.50;2.27;;;;;;;0.46;100.00;97944.11;1829794;77;21095;-66
2022/01/31 11:42:13;;;;;;;4.50;2.62;;;;;;;0.49;100.00;97951.81;1827381;77;21030;-65
2022/01/31 11:45:01;;;;;;;4.55;1.90;;;;;;;0.52;100.00;97951.70;1817858;77;21554;-67
2022/01/31 11:47:30;;;;;;;2.65;1.60;;;;;;;0.55;100.00;97952.47;1788990;79;21081;-65
2022/01/31 11:50:04;;;;;;;8.33;4.12;;;;;;;0.53;97.83;97961.15;1826541;77;21533;-66